createdAt,value
2024-01-12T00:01:26.321Z,24.16
2024-01-12T00:04:06.675Z,24.16
2024-01-12T00:17:33.854Z,23.86
2024-01-12T00:20:09.165Z,23.85
2024-01-12T00:24:01.577Z,23.86
2024-01-12T00:27:33.186Z,23.81
2024-01-12T00:31:02.842Z,23.71
2024-01-12T00:34:17.960Z,23.63
2024-01-12T00:42:22.883Z,23.61
2024-01-12T00:45:53.616Z,23.62
2024-01-12T00:48:24.134Z,23.54
2024-01-12T00:50:54.796Z,23.54
2024-01-12T00:53:26.223Z,23.45
2024-01-12T00:55:57.740Z,23.51
2024-01-12T00:58:28.230Z,23.57
2024-01-12T01:00:58.334Z,23.57
2024-01-12T01:03:28.382Z,23.51
2024-01-12T01:05:58.921Z,23.51
2024-01-12T01:08:29.516Z,23.44
2024-01-12T01:11:00.333Z,23.38
2024-01-12T01:13:30.294Z,23.37
2024-01-12T01:16:00.966Z,23.40
2024-01-12T01:18:34.928Z,23.32
2024-01-12T01:21:07.532Z,23.24
2024-01-12T01:23:38.255Z,23.10
2024-01-12T01:26:09.844Z,23.07
2024-01-12T01:29:05.820Z,23.06
2024-01-12T01:34:41.943Z,22.97
2024-01-12T01:37:55.658Z,22.93
2024-01-12T01:40:27.784Z,22.84
2024-01-12T01:42:58.404Z,22.82
2024-01-12T01:45:28.685Z,22.80
2024-01-12T01:47:58.905Z,22.77
2024-01-12T01:50:29.669Z,22.76
2024-01-12T01:53:01.055Z,22.64
2024-01-12T01:55:34.107Z,22.62
2024-01-12T01:58:46.544Z,22.59
2024-01-12T02:01:34.001Z,22.55
2024-01-12T02:04:15.428Z,22.53
2024-01-12T02:09:54.403Z,22.29
2024-01-12T02:13:35.274Z,22.31
2024-01-12T02:16:22.132Z,22.31
2024-01-12T02:19:25.614Z,22.29
2024-01-12T02:22:27.516Z,22.24
2024-01-12T02:43:52.534Z,22.28
2024-01-12T02:55:22.395Z,22.19
2024-01-12T02:58:02.192Z,22.35
2024-01-12T03:00:33.258Z,22.43
2024-01-12T03:03:06.360Z,22.46
2024-01-12T03:05:40.156Z,22.38
2024-01-12T03:12:47.010Z,22.25
2024-01-12T03:15:30.954Z,22.26
2024-01-12T03:31:45.869Z,22.26
2024-01-12T03:52:15.540Z,22.18
2024-01-12T03:54:46.681Z,22.18
2024-01-12T03:57:18.496Z,22.16
2024-01-12T03:59:48.559Z,22.11
2024-01-12T04:02:18.764Z,22.08
2024-01-12T04:05:19.918Z,22.08
2024-01-12T04:16:21.427Z,21.98
2024-01-12T04:19:49.282Z,21.94
2024-01-12T04:22:29.057Z,21.93
2024-01-12T04:32:49.624Z,21.83
2024-01-12T04:35:53.519Z,21.78
2024-01-12T04:38:43.338Z,21.75
2024-01-12T04:41:38.076Z,21.77
2024-01-12T04:44:20.986Z,21.71
2024-01-12T04:46:57.668Z,21.68
2024-01-12T04:49:28.949Z,21.73
2024-01-12T04:52:25.641Z,21.73
2024-01-12T04:54:57.892Z,21.74
2024-01-12T04:57:29.330Z,21.68
2024-01-12T05:00:26.066Z,21.60
2024-01-12T05:11:48.947Z,21.56
2024-01-12T05:14:23.132Z,21.53
2024-01-12T05:16:53.137Z,21.51
2024-01-12T05:19:22.998Z,21.46
2024-01-12T05:21:53.072Z,21.49
2024-01-12T05:24:23.200Z,21.57
2024-01-12T05:26:55.661Z,21.64
2024-01-12T05:29:26.005Z,21.58
2024-01-12T05:31:56.369Z,21.65
2024-01-12T05:34:26.378Z,21.68
2024-01-12T05:36:56.314Z,21.71
2024-01-12T05:39:26.194Z,21.68
2024-01-12T05:41:57.470Z,21.65
2024-01-12T05:44:27.702Z,21.63
2024-01-12T05:46:58.586Z,21.65
2024-01-12T05:49:28.416Z,21.70
2024-01-12T05:51:58.860Z,21.67
2024-01-12T05:54:30.908Z,21.64
2024-01-12T05:57:01.673Z,21.68
2024-01-12T05:59:31.621Z,21.68
2024-01-12T06:02:01.826Z,21.71
2024-01-12T06:04:31.921Z,21.73
2024-01-12T06:07:02.787Z,21.74
2024-01-12T06:09:34.130Z,21.73
2024-01-12T06:12:04.689Z,21.74
2024-01-12T06:14:37.234Z,21.64
2024-01-12T06:17:08.594Z,21.63
2024-01-12T06:19:39.973Z,21.67
2024-01-12T06:22:12.113Z,21.65
2024-01-12T06:24:42.119Z,21.65
2024-01-12T06:27:14.014Z,21.68
2024-01-12T06:29:43.802Z,21.74
2024-01-12T06:32:14.389Z,21.67
2024-01-12T06:34:45.864Z,21.64
2024-01-12T06:37:16.849Z,21.60
2024-01-12T06:39:47.404Z,21.57
2024-01-12T06:42:18.347Z,21.58
2024-01-12T06:44:49.753Z,21.58
2024-01-12T06:47:20.253Z,21.58
2024-01-12T06:49:51.370Z,21.60
2024-01-12T06:52:22.286Z,21.67
2024-01-12T06:54:52.777Z,21.57
2024-01-12T06:57:23.257Z,21.60
2024-01-12T06:59:53.241Z,21.51
2024-01-12T07:02:23.444Z,21.53
2024-01-12T07:04:54.593Z,21.56
2024-01-12T07:07:25.182Z,21.57
2024-01-12T07:09:55.524Z,21.60
2024-01-12T07:12:27.040Z,21.56
2024-01-12T07:14:58.376Z,21.57
2024-01-12T07:17:28.940Z,21.57
2024-01-12T07:19:59.144Z,21.57
2024-01-12T07:22:29.028Z,21.58
2024-01-12T07:24:59.167Z,21.53
2024-01-12T07:27:30.016Z,21.60
2024-01-12T07:30:00.646Z,21.63
2024-01-12T07:32:31.448Z,21.60
2024-01-12T07:35:01.412Z,21.51
2024-01-12T07:37:31.675Z,21.51
2024-01-12T07:40:03.171Z,21.51
2024-01-12T07:42:34.257Z,21.51
2024-01-12T07:45:04.524Z,21.49
2024-01-12T07:47:34.462Z,21.49
2024-01-12T07:50:04.684Z,21.51
2024-01-12T07:52:35.728Z,21.46
2024-01-12T07:55:06.962Z,21.50
2024-01-12T07:57:37.221Z,21.57
2024-01-12T08:00:11.305Z,21.54
2024-01-12T08:02:46.680Z,21.54
2024-01-12T08:05:19.054Z,21.51
2024-01-12T08:07:50.524Z,21.49
2024-01-12T08:10:23.151Z,21.49
2024-01-12T08:12:54.002Z,21.49
2024-01-12T08:15:25.636Z,21.46
2024-01-12T08:17:58.480Z,21.47
2024-01-12T08:20:29.928Z,21.47
2024-01-12T08:23:00.414Z,21.44
2024-01-12T08:25:30.725Z,21.42
2024-01-12T08:28:01.072Z,21.40
2024-01-12T08:30:30.980Z,21.39
2024-01-12T08:33:02.943Z,21.42
2024-01-12T08:35:33.678Z,21.44
2024-01-12T08:38:04.721Z,21.46
2024-01-12T08:40:34.913Z,21.43
2024-01-12T08:43:04.726Z,21.46
2024-01-12T08:45:39.018Z,21.50
2024-01-12T08:48:09.930Z,21.54
2024-01-12T08:50:40.781Z,21.54
2024-01-12T08:53:12.625Z,21.57
2024-01-12T08:55:43.504Z,21.65
2024-01-12T08:58:16.353Z,21.68
2024-01-12T09:00:47.314Z,21.65
2024-01-12T09:03:18.679Z,21.73
2024-01-12T09:05:49.186Z,21.73
2024-01-12T09:08:20.773Z,21.77
2024-01-12T09:10:51.224Z,21.81
2024-01-12T09:13:22.106Z,21.80
2024-01-12T09:15:53.339Z,21.80
2024-01-12T09:18:24.025Z,21.85
2024-01-12T09:20:54.445Z,21.90
2024-01-12T09:23:25.614Z,21.83
2024-01-12T09:25:57.139Z,21.90
2024-01-12T09:28:28.331Z,21.94
2024-01-12T09:30:59.035Z,22.04
2024-01-12T09:33:29.469Z,22.11
2024-01-12T09:36:00.471Z,22.15
2024-01-12T09:38:34.417Z,22.19
2024-01-12T09:41:05.873Z,22.29
2024-01-12T09:43:39.670Z,22.42
2024-01-12T09:46:12.567Z,22.55
2024-01-12T09:48:46.596Z,22.60
2024-01-12T09:51:19.866Z,22.72
2024-01-12T09:53:51.040Z,22.86
2024-01-12T09:56:28.849Z,23.01
2024-01-12T09:59:06.399Z,23.15
2024-01-12T10:01:40.174Z,23.28
2024-01-12T10:04:15.206Z,23.61
2024-01-12T10:06:46.808Z,24.14
2024-01-12T10:09:28.970Z,24.50
2024-01-12T10:12:00.486Z,24.75
2024-01-12T10:14:31.030Z,25.20
2024-01-12T10:17:03.819Z,25.80
2024-01-12T10:19:37.795Z,25.81
2024-01-12T10:22:12.020Z,25.33
2024-01-12T10:24:42.698Z,25.29
2024-01-12T10:27:16.662Z,25.80
2024-01-12T10:29:49.427Z,26.68
2024-01-12T10:32:23.500Z,26.58
2024-01-12T10:34:56.547Z,27.95
2024-01-12T10:37:28.234Z,29.70
2024-01-12T10:40:08.996Z,30.18
2024-01-12T10:42:41.916Z,31.23
2024-01-12T10:45:15.885Z,30.44
2024-01-12T10:48:00.212Z,30.79
2024-01-12T10:50:34.737Z,31.00
2024-01-12T10:53:20.637Z,29.12
2024-01-12T10:55:56.602Z,28.40
2024-01-12T10:58:27.760Z,29.14
2024-01-12T11:00:59.349Z,30.89
2024-01-12T11:03:30.921Z,30.78
2024-01-12T11:06:02.806Z,31.30
2024-01-12T11:08:34.083Z,31.61
2024-01-12T11:11:09.213Z,32.18
2024-01-12T11:13:40.582Z,32.21
2024-01-12T11:16:11.398Z,32.93
2024-01-12T11:18:42.735Z,32.19
2024-01-12T11:21:13.498Z,32.49
2024-01-12T11:23:47.709Z,32.66
2024-01-12T11:26:18.076Z,33.74
2024-01-12T11:28:50.153Z,34.17
2024-01-12T11:31:31.352Z,34.10
2024-01-12T11:34:05.547Z,34.16
2024-01-12T11:36:36.147Z,35.66
2024-01-12T11:39:07.720Z,35.30
2024-01-12T11:41:38.712Z,35.83
2024-01-12T11:44:11.404Z,34.39
2024-01-12T11:46:43.230Z,35.49
2024-01-12T11:49:13.898Z,34.91
2024-01-12T11:51:47.396Z,35.28
2024-01-12T11:54:17.870Z,35.31
2024-01-12T11:56:48.058Z,36.10
2024-01-12T11:59:18.479Z,35.71
2024-01-12T12:01:49.170Z,37.09
2024-01-12T12:04:22.892Z,36.17
2024-01-12T12:06:55.100Z,35.30
2024-01-12T12:09:26.164Z,36.52
2024-01-12T12:11:56.981Z,36.85
2024-01-12T12:14:27.166Z,37.16
2024-01-12T12:16:57.041Z,38.11
2024-01-12T12:19:28.440Z,38.65
2024-01-12T12:22:00.700Z,37.14
2024-01-12T12:24:32.858Z,39.17
2024-01-12T12:27:03.429Z,34.73
2024-01-12T12:29:33.353Z,33.37
2024-01-12T12:32:04.621Z,33.81
2024-01-12T12:34:35.398Z,32.15
2024-01-12T12:37:11.072Z,33.34
2024-01-12T12:39:41.998Z,33.27
2024-01-12T12:42:14.814Z,33.65
2024-01-12T12:44:48.907Z,35.86
2024-01-12T12:47:20.533Z,38.31
2024-01-12T12:49:51.037Z,35.93
2024-01-12T12:52:21.751Z,36.09
2024-01-12T12:54:53.765Z,37.80
2024-01-12T12:57:24.092Z,38.87
2024-01-12T12:59:55.688Z,37.26
2024-01-12T13:02:27.678Z,37.07
2024-01-12T13:04:58.214Z,38.62
2024-01-12T13:07:32.716Z,40.70
2024-01-12T13:10:04.894Z,43.32
2024-01-12T13:12:34.954Z,39.50
2024-01-12T13:15:06.467Z,36.50
2024-01-12T13:17:38.588Z,35.66
2024-01-12T13:20:09.692Z,36.96
2024-01-12T13:22:40.909Z,38.18
2024-01-12T13:25:12.106Z,35.52
2024-01-12T13:27:43.349Z,35.11
2024-01-12T13:30:14.098Z,35.11
2024-01-12T13:32:45.153Z,36.10
2024-01-12T13:35:15.890Z,35.92
2024-01-12T13:37:46.191Z,37.08
2024-01-12T13:40:18.247Z,40.12
2024-01-12T13:42:50.244Z,38.66
2024-01-12T13:45:21.250Z,36.98
2024-01-12T13:47:51.628Z,36.47
2024-01-12T13:50:21.862Z,34.98
2024-01-12T13:52:51.957Z,34.12
2024-01-12T13:55:23.001Z,34.26
2024-01-12T13:57:54.566Z,34.06
2024-01-12T14:00:25.688Z,33.76
2024-01-12T14:02:56.093Z,33.28
2024-01-12T14:05:25.986Z,33.98
2024-01-12T14:07:58.076Z,35.19
2024-01-12T14:10:28.914Z,38.45
2024-01-12T14:13:01.306Z,38.78
2024-01-12T14:15:33.721Z,39.14
2024-01-12T14:18:03.970Z,40.78
2024-01-12T14:20:39.022Z,42.51
2024-01-12T14:23:09.726Z,43.55
2024-01-12T14:25:40.636Z,44.68
2024-01-12T14:28:20.407Z,44.76
2024-01-12T14:31:01.996Z,44.45
2024-01-12T14:33:36.792Z,41.68
2024-01-12T14:36:08.008Z,40.90
2024-01-12T14:38:43.231Z,40.52
2024-01-12T14:41:14.596Z,37.35
2024-01-12T14:43:44.805Z,39.30
2024-01-12T14:46:29.697Z,36.17
2024-01-12T14:49:00.710Z,35.12
2024-01-12T14:51:34.678Z,38.87
2024-01-12T14:54:05.311Z,40.36
2024-01-12T14:56:36.427Z,39.54
2024-01-12T14:59:07.627Z,38.64
2024-01-12T15:01:39.417Z,39.39
2024-01-12T15:04:18.585Z,40.75
2024-01-12T15:06:50.516Z,41.40
2024-01-12T15:09:22.679Z,41.84
2024-01-12T15:11:53.405Z,42.12
2024-01-12T15:14:24.072Z,39.84
2024-01-12T15:16:54.793Z,39.65
2024-01-12T15:19:28.723Z,38.03
2024-01-12T15:22:02.531Z,37.30
2024-01-12T15:24:35.460Z,40.02
2024-01-12T15:27:13.469Z,39.14
2024-01-12T15:29:48.378Z,37.90
2024-01-12T15:32:19.074Z,39.03
2024-01-12T15:34:50.379Z,39.24
2024-01-12T15:37:20.668Z,40.02
2024-01-12T15:39:51.960Z,38.68
2024-01-12T15:42:25.377Z,39.47
2024-01-12T15:45:00.760Z,41.93
2024-01-12T15:47:32.022Z,42.26
2024-01-12T15:50:02.831Z,42.05
2024-01-12T15:52:34.185Z,41.44
2024-01-12T15:55:04.566Z,39.63
2024-01-12T15:57:34.916Z,39.03
2024-01-12T16:00:06.632Z,38.20
2024-01-12T16:02:37.069Z,38.08
2024-01-12T16:05:11.587Z,37.29
2024-01-12T16:07:43.242Z,37.05
2024-01-12T16:10:17.852Z,35.22
2024-01-12T16:12:49.770Z,34.59
2024-01-12T16:15:23.250Z,34.39
2024-01-12T16:17:55.284Z,34.83
2024-01-12T16:20:27.142Z,34.22
2024-01-12T16:22:58.767Z,35.12
2024-01-12T16:25:29.380Z,37.42
2024-01-12T16:28:00.262Z,36.54
2024-01-12T16:30:33.059Z,35.73
2024-01-12T16:33:08.002Z,36.58
2024-01-12T16:35:40.059Z,37.40
2024-01-12T16:38:11.806Z,37.84
2024-01-12T16:40:42.543Z,37.05
2024-01-12T16:43:15.872Z,36.96
2024-01-12T16:45:48.577Z,37.59
2024-01-12T16:48:24.322Z,37.25
2024-01-12T16:50:55.527Z,36.77
2024-01-12T16:53:25.787Z,36.37
2024-01-12T16:55:55.634Z,35.94
2024-01-12T16:58:25.924Z,35.30
2024-01-12T17:00:56.503Z,34.74
2024-01-12T17:03:26.439Z,34.37
2024-01-12T17:05:56.397Z,33.76
2024-01-12T17:08:26.742Z,34.36
2024-01-12T17:10:58.376Z,34.46
2024-01-12T17:13:28.786Z,36.04
2024-01-12T17:15:58.807Z,37.33
2024-01-12T17:18:33.003Z,37.53
2024-01-12T17:21:04.911Z,37.49
2024-01-12T17:23:36.705Z,37.52
2024-01-12T17:26:14.003Z,37.67
2024-01-12T17:28:43.946Z,36.15
2024-01-12T17:31:14.768Z,35.62
2024-01-12T17:33:45.160Z,36.40
2024-01-12T17:36:15.667Z,36.91
2024-01-12T17:38:45.887Z,37.52
2024-01-12T17:41:17.699Z,38.18
2024-01-12T17:43:48.602Z,38.25
2024-01-12T17:46:19.530Z,35.79
2024-01-12T17:48:49.738Z,35.24
2024-01-12T17:51:22.757Z,34.56
2024-01-12T17:53:55.528Z,34.97
2024-01-12T17:56:27.201Z,34.31
2024-01-12T17:58:57.307Z,34.04
2024-01-12T18:01:40.112Z,35.24
2024-01-12T18:04:10.784Z,36.09
2024-01-12T18:06:45.065Z,36.04
2024-01-12T18:09:15.800Z,36.71
2024-01-12T18:11:47.971Z,37.03
2024-01-12T18:14:18.794Z,37.35
2024-01-12T18:16:51.917Z,36.60
2024-01-12T18:19:23.492Z,36.00
2024-01-12T18:21:55.346Z,35.11
2024-01-12T18:24:27.762Z,35.22
2024-01-12T18:26:57.830Z,35.92
2024-01-12T18:29:28.073Z,34.50
2024-01-12T18:31:59.753Z,33.88
2024-01-12T18:34:30.524Z,33.40
2024-01-12T18:37:01.117Z,33.45
2024-01-12T18:39:33.409Z,32.93
2024-01-12T18:42:03.628Z,33.14
2024-01-12T18:44:33.666Z,32.95
2024-01-12T18:47:03.818Z,33.17
2024-01-12T18:49:33.938Z,33.13
2024-01-12T18:52:06.538Z,33.58
2024-01-12T18:54:37.474Z,33.44
2024-01-12T18:57:08.477Z,33.04
2024-01-12T18:59:38.773Z,33.02
2024-01-12T19:02:08.952Z,32.91
2024-01-12T19:04:42.615Z,32.72
2024-01-12T19:07:20.954Z,32.38
2024-01-12T19:09:51.630Z,32.04
2024-01-12T19:12:22.337Z,31.98
2024-01-12T19:14:52.772Z,32.32
2024-01-12T19:17:24.850Z,32.55
2024-01-12T19:19:55.343Z,32.49
2024-01-12T19:22:30.385Z,32.66
2024-01-12T19:25:02.462Z,32.93
2024-01-12T19:27:33.706Z,33.27
2024-01-12T19:30:07.526Z,33.27
2024-01-12T19:32:40.713Z,33.41
2024-01-12T19:35:11.669Z,33.28
2024-01-12T19:37:42.280Z,33.21
2024-01-12T19:40:13.089Z,33.21
2024-01-12T19:42:43.442Z,33.02
2024-01-12T19:45:13.487Z,32.87
2024-01-12T19:47:45.801Z,32.79
2024-01-12T19:50:17.368Z,32.35
2024-01-12T19:52:48.070Z,32.00
2024-01-12T19:55:19.778Z,31.84
2024-01-12T19:57:51.494Z,31.85
2024-01-12T20:00:22.142Z,32.31
2024-01-12T20:02:52.109Z,32.32
2024-01-12T20:05:22.317Z,32.18
2024-01-12T20:07:53.122Z,31.94
2024-01-12T20:10:23.291Z,31.71
2024-01-12T20:12:53.823Z,31.49
2024-01-12T20:15:24.081Z,31.61
2024-01-12T20:17:56.110Z,31.57
2024-01-12T20:20:26.679Z,31.18
2024-01-12T20:22:56.980Z,31.04
2024-01-12T20:25:26.938Z,31.37
2024-01-12T20:27:56.780Z,31.61
2024-01-12T20:30:26.825Z,31.82
2024-01-12T20:32:57.085Z,31.80
2024-01-12T20:35:27.361Z,31.77
2024-01-12T20:37:57.754Z,31.76
2024-01-12T20:40:27.618Z,31.64
2024-01-12T20:42:58.052Z,31.50
2024-01-12T20:45:28.341Z,31.60
2024-01-12T20:47:58.746Z,31.67
2024-01-12T20:50:30.912Z,31.27
2024-01-12T20:53:01.689Z,31.15
2024-01-12T20:55:32.554Z,31.00
2024-01-12T20:58:03.315Z,30.75
2024-01-12T21:00:33.701Z,30.74
2024-01-12T21:03:03.966Z,30.55
2024-01-12T21:05:34.611Z,30.31
2024-01-12T21:08:05.432Z,30.21
2024-01-12T21:10:36.601Z,30.04
2024-01-12T21:13:08.171Z,30.13
2024-01-12T21:15:39.199Z,30.12
2024-01-12T21:18:10.965Z,30.13
2024-01-12T21:20:41.941Z,30.06
2024-01-12T21:23:12.335Z,29.99
2024-01-12T21:25:43.924Z,29.77
2024-01-12T21:28:14.395Z,29.72
2024-01-12T21:30:47.388Z,29.77
2024-01-12T21:33:18.915Z,29.84
2024-01-12T21:35:49.455Z,29.92
2024-01-12T21:38:22.076Z,29.90
2024-01-12T21:40:53.745Z,29.76
2024-01-12T21:43:24.700Z,29.72
2024-01-12T21:45:54.758Z,29.74
2024-01-12T21:48:25.530Z,29.72
2024-01-12T21:50:55.972Z,29.65
2024-01-12T21:53:26.633Z,29.43
2024-01-12T21:55:56.693Z,29.32
2024-01-12T21:58:27.030Z,29.25
2024-01-12T22:00:57.147Z,29.16
2024-01-12T22:03:28.140Z,29.08
2024-01-12T22:05:59.283Z,28.97
2024-01-12T22:08:30.574Z,28.93
2024-01-12T22:11:00.736Z,28.87
2024-01-12T22:13:31.651Z,28.81
2024-01-12T22:16:01.831Z,28.71
2024-01-12T22:18:32.619Z,28.66
2024-01-12T22:21:03.126Z,28.57
2024-01-12T22:23:33.869Z,28.49
2024-01-12T22:26:04.739Z,28.45
2024-01-12T22:28:34.747Z,28.32
2024-01-12T22:31:06.115Z,28.27
2024-01-12T22:33:36.647Z,28.22
2024-01-12T22:36:06.914Z,28.17
2024-01-12T22:38:36.787Z,28.09
2024-01-12T22:41:06.648Z,28.01
2024-01-12T22:43:37.116Z,27.99
2024-01-12T22:46:07.314Z,27.94
2024-01-12T22:48:37.418Z,27.88
2024-01-12T22:51:08.099Z,27.86
2024-01-12T22:53:39.353Z,27.89
2024-01-12T22:56:11.288Z,27.82
2024-01-12T22:58:44.785Z,27.75
2024-01-12T23:01:14.992Z,27.69
2024-01-12T23:03:45.161Z,27.64
2024-01-12T23:06:15.876Z,27.57
2024-01-12T23:08:47.190Z,27.40
2024-01-12T23:11:17.426Z,27.31
2024-01-12T23:13:47.166Z,27.31
2024-01-12T23:16:17.092Z,27.30
2024-01-12T23:18:47.268Z,27.22
2024-01-12T23:21:18.126Z,27.07
2024-01-12T23:23:48.699Z,27.06
2024-01-12T23:26:19.381Z,27.08
2024-01-12T23:28:49.360Z,27.03
2024-01-12T23:31:19.415Z,26.89
2024-01-12T23:33:50.650Z,26.85
2024-01-12T23:36:21.339Z,26.78
2024-01-12T23:38:55.029Z,26.66
2024-01-12T23:41:32.116Z,26.53
2024-01-12T23:44:03.202Z,26.53
2024-01-12T23:46:33.147Z,26.38
2024-01-12T23:49:03.532Z,26.31
2024-01-12T23:51:33.456Z,26.16
2024-01-12T23:54:03.918Z,26.04
2024-01-12T23:56:34.073Z,25.98
2024-01-12T23:59:05.511Z,25.94
